Time;durP1;ratioP1;P1;durP2;ratioP2;P2;SDS_P1;SDS_P2;PMS_P1;PMS_P2;Temp;Humidity;BMP_temperature;BMP_pressure;BME280_temperature;BME280_humidity;BME280_pressure;Samples;Min_cycle;Max_cycle;Signal;HPM_P1;HPM_P2
2021/10/03 00:00:00;;;;;;;7.37;6.73;;;17.60;99.90;;;;;;6128613;23;20450;-87
2021/10/03 00:02:31;;;;;;;8.73;7.90;;;17.50;99.90;;;;;;6128436;23;20463;-87
2021/10/03 00:05:02;;;;;;;6.90;6.23;;;17.60;99.90;;;;;;6128665;23;20388;-86
2021/10/03 00:07:31;;;;;;;8.10;7.33;;;17.50;99.90;;;;;;6128295;23;20424;-87
2021/10/03 00:09:57;;;;;;;8.53;7.77;;;17.50;99.90;;;;;;6132534;23;20392;-87
2021/10/03 00:12:24;;;;;;;9.03;8.13;;;17.40;99.90;;;;;;6143145;23;20501;-87
2021/10/03 00:14:51;;;;;;;9.37;8.07;;;17.40;99.90;;;;;;6140337;23;20447;-87
2021/10/03 00:17:20;;;;;;;7.77;7.07;;;17.40;99.90;;;;;;6134412;23;20411;-87
2021/10/03 00:19:47;;;;;;;7.93;7.20;;;17.40;99.90;;;;;;6133269;23;20422;-87
2021/10/03 00:22:14;;;;;;;7.93;7.20;;;17.40;99.90;;;;;;6128915;23;20441;-87
2021/10/03 00:24:40;;;;;;;8.33;7.53;;;17.50;99.90;;;;;;6127787;23;20487;-88
2021/10/03 00:27:07;;;;;;;7.63;6.80;;;17.30;99.90;;;;;;6128140;23;20384;-87
2021/10/03 00:29:35;;;;;;;8.97;8.03;;;17.30;99.90;;;;;;6127355;23;20903;-88
2021/10/03 00:32:03;;;;;;;7.50;6.80;;;17.30;99.90;;;;;;6127434;23;20508;-88
2021/10/03 00:34:31;;;;;;;7.07;6.37;;;17.30;99.90;;;;;;6128155;23;20475;-87
2021/10/03 00:36:58;;;;;;;8.17;7.47;;;17.30;99.90;;;;;;6126708;23;20411;-87
2021/10/03 00:39:25;;;;;;;8.27;7.50;;;17.40;99.90;;;;;;6127385;23;20487;-87
2021/10/03 00:41:52;;;;;;;9.00;7.80;;;17.40;99.90;;;;;;6127496;23;20411;-87
2021/10/03 00:44:20;;;;;;;8.03;7.30;;;17.30;99.90;;;;;;6127937;23;20466;-88
2021/10/03 00:46:47;;;;;;;9.03;8.20;;;17.30;99.90;;;;;;6128561;23;20423;-86
2021/10/03 00:49:14;;;;;;;8.23;7.43;;;17.10;99.90;;;;;;6130326;23;20415;-87
2021/10/03 00:51:42;;;;;;;11.20;9.30;;;17.20;99.90;;;;;;6127808;23;20396;-87
2021/10/03 00:54:09;;;;;;;9.30;8.20;;;17.10;99.90;;;;;;6127176;23;20444;-87
2021/10/03 00:56:36;;;;;;;11.63;8.50;;;17.10;99.90;;;;;;6128560;23;20408;-89
2021/10/03 00:59:03;;;;;;;9.13;8.23;;;17.00;99.90;;;;;;6127515;23;20475;-89
2021/10/03 01:01:31;;;;;;;8.47;7.67;;;17.10;99.90;;;;;;6128069;23;20427;-88
2021/10/03 01:03:57;;;;;;;8.50;7.70;;;17.20;99.90;;;;;;6126489;23;20412;-88
2021/10/03 01:06:24;;;;;;;9.13;8.23;;;17.30;99.90;;;;;;6126778;23;20410;-87
2021/10/03 01:08:52;;;;;;;8.60;7.83;;;17.20;99.90;;;;;;6127195;23;20479;-87
2021/10/03 01:11:19;;;;;;;9.27;8.37;;;17.30;99.90;;;;;;6126398;23;20419;-88
2021/10/03 01:13:47;;;;;;;11.17;8.60;;;17.20;99.90;;;;;;6126334;23;20919;-87
2021/10/03 01:16:14;;;;;;;8.10;7.30;;;17.20;99.90;;;;;;6126255;23;20451;-88
2021/10/03 01:18:41;;;;;;;9.80;8.60;;;17.20;99.90;;;;;;6152178;23;20409;-85
2021/10/03 01:21:09;;;;;;;9.27;8.37;;;17.20;99.90;;;;;;6133121;23;20409;-88
2021/10/03 01:23:36;;;;;;;9.63;8.30;;;17.30;99.90;;;;;;6130211;23;20463;-87
2021/10/03 01:26:03;;;;;;;9.43;8.43;;;17.30;99.90;;;;;;6129278;23;20412;-89
2021/10/03 01:31:52;;;;;;;9.07;7.47;;;17.20;99.90;;;;;;6128846;23;20498;-89
2021/10/03 01:34:19;;;;;;;13.27;7.40;;;17.20;99.90;;;;;;6129602;23;20487;-89
2021/10/03 01:36:47;;;;;;;8.90;8.03;;;17.20;99.90;;;;;;6128683;23;20418;-88
2021/10/03 01:39:14;;;;;;;20.93;10.10;;;17.10;99.90;;;;;;6136542;23;20398;-88
2021/10/03 01:41:41;;;;;;;10.90;8.57;;;17.00;99.90;;;;;;6137991;23;20439;-88
2021/10/03 01:44:08;;;;;;;7.60;6.90;;;17.00;99.90;;;;;;6130563;23;20427;-88
2021/10/03 01:46:35;;;;;;;8.03;7.23;;;17.10;99.90;;;;;;6133992;23;20419;-87
2021/10/03 01:49:01;;;;;;;8.60;7.80;;;17.10;99.90;;;;;;6129086;23;20404;-88
2021/10/03 01:51:29;;;;;;;9.20;7.30;;;17.10;99.90;;;;;;6129048;23;20413;-88
2021/10/03 01:53:59;;;;;;;8.57;7.77;;;17.10;99.90;;;;;;6127805;23;20426;-88
2021/10/03 01:56:27;;;;;;;8.50;7.70;;;17.10;99.90;;;;;;6127628;23;20447;-87
2021/10/03 01:58:58;;;;;;;8.90;8.00;;;17.20;99.90;;;;;;6147908;23;20405;-87
2021/10/03 02:01:28;;;;;;;9.10;7.30;;;17.20;99.90;;;;;;6141643;23;20496;-88
2021/10/03 02:03:55;;;;;;;9.33;8.40;;;17.20;99.90;;;;;;6127849;23;20439;-88
2021/10/03 02:06:23;;;;;;;8.70;7.87;;;17.10;99.90;;;;;;6128018;23;20773;-87
2021/10/03 02:08:51;;;;;;;8.97;8.07;;;17.10;99.90;;;;;;6128383;23;20419;-88
2021/10/03 02:11:20;;;;;;;8.33;7.50;;;17.10;99.90;;;;;;6130938;23;20396;-86
2021/10/03 02:13:46;;;;;;;8.40;7.60;;;17.10;99.90;;;;;;6129210;23;20431;-86
2021/10/03 02:16:13;;;;;;;8.67;7.87;;;17.10;99.90;;;;;;6128874;23;20432;-86
2021/10/03 02:18:41;;;;;;;8.73;7.87;;;17.00;99.90;;;;;;6129072;23;20435;-86
2021/10/03 02:21:09;;;;;;;7.57;6.87;;;17.00;99.90;;;;;;6138849;23;20419;-86
2021/10/03 02:23:37;;;;;;;8.73;7.90;;;17.00;99.90;;;;;;6146290;23;20428;-87
2021/10/03 02:26:05;;;;;;;8.50;7.57;;;17.10;99.90;;;;;;6140060;23;20423;-87
2021/10/03 02:28:34;;;;;;;9.20;8.30;;;17.00;99.90;;;;;;6139681;23;20412;-87
2021/10/03 02:31:04;;;;;;;9.50;8.60;;;17.00;99.90;;;;;;6137822;23;20416;-86
2021/10/03 02:33:31;;;;;;;8.40;7.60;;;17.00;99.90;;;;;;6147597;23;20433;-86
2021/10/03 02:35:58;;;;;;;8.83;6.80;;;17.00;99.90;;;;;;6149482;23;20433;-87
2021/10/03 02:38:26;;;;;;;13.27;7.27;;;16.90;99.90;;;;;;6133199;23;20459;-87
2021/10/03 02:40:55;;;;;;;8.80;8.00;;;16.90;99.90;;;;;;6148748;23;20401;-86
2021/10/03 02:43:24;;;;;;;7.27;6.67;;;16.90;99.90;;;;;;6139596;23;20432;-86
2021/10/03 02:45:55;;;;;;;8.60;7.50;;;16.90;99.90;;;;;;6130465;23;20407;-87
2021/10/03 02:48:24;;;;;;;8.20;6.77;;;16.90;99.90;;;;;;6128181;23;20422;-88
2021/10/03 02:50:52;;;;;;;6.97;6.23;;;16.90;99.90;;;;;;6128006;23;20407;-88
2021/10/03 02:53:21;;;;;;;7.70;6.97;;;16.80;99.90;;;;;;6127914;23;20428;-87
2021/10/03 02:55:48;;;;;;;9.30;7.20;;;16.70;99.90;;;;;;6123350;23;20451;-84
2021/10/03 02:58:14;;;;;;;9.27;7.03;;;16.70;99.90;;;;;;6133170;23;20455;-82
2021/10/03 03:00:42;;;;;;;8.00;7.30;;;16.60;99.90;;;;;;6131037;23;20404;-81
2021/10/03 03:03:10;;;;;;;8.00;6.53;;;16.60;99.90;;;;;;6131707;23;20392;-81
2021/10/03 03:05:37;;;;;;;6.53;5.93;;;16.60;99.90;;;;;;6132915;23;20428;-82
2021/10/03 03:08:05;;;;;;;7.43;6.63;;;16.60;99.90;;;;;;6134587;23;20408;-82
2021/10/03 03:10:32;;;;;;;6.83;6.23;;;16.60;99.90;;;;;;6133333;23;20409;-81
2021/10/03 03:12:59;;;;;;;7.53;6.83;;;16.50;99.90;;;;;;6138656;23;20403;-80
2021/10/03 03:15:26;;;;;;;8.37;6.60;;;16.40;99.90;;;;;;6143287;23;20447;-84
2021/10/03 03:17:53;;;;;;;6.90;6.17;;;16.30;99.90;;;;;;6132445;23;20409;-81
2021/10/03 03:20:21;;;;;;;8.00;6.80;;;16.30;99.90;;;;;;6132321;23;20412;-82
2021/10/03 03:22:48;;;;;;;7.33;6.50;;;16.30;99.90;;;;;;6137192;23;20397;-83
2021/10/03 03:25:16;;;;;;;8.67;6.07;;;16.40;99.90;;;;;;6136641;23;20434;-80
2021/10/03 03:27:43;;;;;;;6.87;6.20;;;16.40;99.90;;;;;;6143679;23;20426;-80
2021/10/03 03:30:14;;;;;;;7.83;7.17;;;16.30;99.90;;;;;;6138889;23;20407;-86
2021/10/03 03:32:41;;;;;;;6.23;5.63;;;16.20;99.90;;;;;;6135230;23;20436;-86
2021/10/03 03:35:10;;;;;;;8.07;7.27;;;16.20;99.90;;;;;;6137208;23;20502;-84
2021/10/03 03:37:39;;;;;;;7.60;6.33;;;16.20;99.90;;;;;;6149000;23;20491;-83
2021/10/03 03:40:09;;;;;;;8.47;7.37;;;16.30;99.90;;;;;;6149686;23;20439;-84
2021/10/03 03:42:36;;;;;;;5.80;5.20;;;16.40;99.90;;;;;;6144937;23;20431;-81
2021/10/03 03:45:04;;;;;;;7.13;6.50;;;16.40;99.90;;;;;;6144773;23;20392;-83
2021/10/03 03:47:31;;;;;;;7.63;6.73;;;16.40;99.90;;;;;;6129232;23;20428;-84
2021/10/03 03:49:58;;;;;;;10.80;6.70;;;16.50;99.90;;;;;;6128167;23;20408;-83
2021/10/03 03:52:25;;;;;;;8.50;6.50;;;16.40;99.90;;;;;;6129200;23;20454;-84
2021/10/03 03:54:54;;;;;;;7.10;6.40;;;16.50;99.90;;;;;;6138812;23;20443;-83
2021/10/03 03:57:21;;;;;;;6.20;5.70;;;16.50;99.90;;;;;;6132098;23;20437;-84
2021/10/03 03:59:47;;;;;;;5.50;5.10;;;16.50;99.90;;;;;;6141330;23;20419;-83
2021/10/03 04:02:15;;;;;;;6.10;5.50;;;16.50;99.90;;;;;;6143279;23;20406;-84
2021/10/03 04:04:42;;;;;;;6.10;5.50;;;16.30;99.90;;;;;;6131725;23;20400;-82
2021/10/03 04:07:09;;;;;;;7.33;6.63;;;16.40;99.90;;;;;;6142483;23;20451;-83
2021/10/03 04:09:36;;;;;;;7.77;7.00;;;16.40;99.90;;;;;;6136724;23;20408;-84
2021/10/03 04:12:05;;;;;;;6.03;5.53;;;16.50;99.90;;;;;;6134426;23;20411;-82
2021/10/03 04:14:32;;;;;;;7.10;6.50;;;16.50;99.90;;;;;;6135708;23;20416;-86
2021/10/03 04:16:59;;;;;;;7.80;6.73;;;16.40;99.90;;;;;;6131395;23;20516;-85
2021/10/03 04:19:28;;;;;;;6.50;5.17;;;16.40;99.90;;;;;;6130708;23;20752;-83
2021/10/03 04:21:54;;;;;;;7.40;6.70;;;16.30;99.90;;;;;;6130663;23;20920;-84
2021/10/03 04:24:22;;;;;;;7.27;6.57;;;16.20;99.90;;;;;;6130521;23;20921;-85
2021/10/03 04:26:49;;;;;;;7.23;6.50;;;16.30;99.90;;;;;;6129165;23;20487;-84
2021/10/03 04:29:17;;;;;;;7.53;6.83;;;16.30;99.90;;;;;;6129423;23;20412;-85
2021/10/03 04:31:44;;;;;;;7.57;6.87;;;16.30;99.90;;;;;;6130216;23;20800;-85
2021/10/03 04:34:11;;;;;;;7.60;6.80;;;16.30;99.90;;;;;;6148137;23;20402;-83
2021/10/03 04:36:37;;;;;;;7.70;7.10;;;16.10;99.90;;;;;;6148975;23;20448;-84
2021/10/03 04:39:04;;;;;;;7.20;6.60;;;16.20;99.90;;;;;;6137847;23;20788;-85
2021/10/03 04:41:31;;;;;;;6.80;6.20;;;16.20;99.90;;;;;;6129770;23;20408;-84
2021/10/03 04:43:58;;;;;;;7.23;6.60;;;16.20;99.90;;;;;;6130853;23;20893;-84
2021/10/03 04:46:27;;;;;;;7.43;6.70;;;16.10;99.90;;;;;;6134884;23;20420;-85
2021/10/03 04:48:53;;;;;;;7.20;6.50;;;16.20;99.90;;;;;;6144200;23;20413;-84
2021/10/03 04:51:20;;;;;;;9.60;6.20;;;16.20;99.90;;;;;;6135855;23;20717;-85
2021/10/03 04:53:47;;;;;;;7.53;6.17;;;16.20;99.90;;;;;;6130673;23;20477;-85
2021/10/03 04:56:13;;;;;;;7.80;7.10;;;16.20;99.90;;;;;;6132692;23;20503;-84
2021/10/03 04:58:40;;;;;;;7.80;6.43;;;16.30;99.90;;;;;;6135576;23;20420;-84
2021/10/03 05:01:09;;;;;;;6.43;5.80;;;16.20;99.90;;;;;;6136031;23;20403;-84
2021/10/03 05:03:37;;;;;;;6.50;6.00;;;16.30;99.90;;;;;;6136768;23;20411;-83
2021/10/03 05:06:07;;;;;;;6.27;5.67;;;16.40;99.90;;;;;;6142695;23;20420;-83
2021/10/03 05:08:34;;;;;;;9.60;6.60;;;16.40;99.90;;;;;;6144960;23;20408;-83
2021/10/03 05:11:01;;;;;;;7.23;6.53;;;16.40;99.90;;;;;;6138585;23;20422;-84
2021/10/03 05:13:28;;;;;;;6.10;5.60;;;16.50;99.90;;;;;;6132431;23;20407;-84
2021/10/03 05:15:56;;;;;;;6.23;5.73;;;16.40;99.90;;;;;;6136438;23;20467;-84
2021/10/03 05:18:23;;;;;;;7.00;6.37;;;16.50;99.90;;;;;;6136960;23;20407;-84
2021/10/03 05:20:52;;;;;;;6.00;5.50;;;16.50;99.90;;;;;;6132804;23;20415;-84
2021/10/03 05:23:19;;;;;;;7.40;6.80;;;16.50;99.90;;;;;;6132065;23;20429;-84
2021/10/03 05:25:46;;;;;;;6.03;5.43;;;16.50;99.90;;;;;;6140548;23;20455;-84
2021/10/03 05:28:13;;;;;;;6.20;5.60;;;16.50;99.90;;;;;;6131333;23;20443;-83
2021/10/03 05:30:40;;;;;;;6.20;5.67;;;16.60;99.90;;;;;;6132505;23;20451;-84
2021/10/03 05:33:10;;;;;;;8.07;6.07;;;16.70;99.90;;;;;;6132601;23;20411;-83
2021/10/03 05:35:36;;;;;;;6.20;5.60;;;16.60;99.90;;;;;;6133978;23;20411;-83
2021/10/03 05:38:04;;;;;;;8.77;6.87;;;16.60;99.90;;;;;;6133475;23;20414;-83
2021/10/03 05:40:32;;;;;;;6.83;6.13;;;16.70;99.90;;;;;;6133708;23;20407;-83
2021/10/03 05:42:59;;;;;;;6.93;6.30;;;16.70;99.90;;;;;;6132318;23;20770;-84
2021/10/03 05:45:26;;;;;;;6.80;6.10;;;16.60;99.90;;;;;;6135108;23;20419;-84
2021/10/03 05:47:53;;;;;;;7.17;5.80;;;16.50;99.90;;;;;;6133013;23;20404;-84
2021/10/03 05:50:20;;;;;;;7.87;6.23;;;16.60;99.90;;;;;;6131686;23;20423;-84
2021/10/03 05:52:47;;;;;;;6.87;6.00;;;16.70;99.90;;;;;;6134610;23;20420;-83
2021/10/03 05:55:15;;;;;;;7.47;6.77;;;16.70;99.90;;;;;;6142288;23;20400;-82
2021/10/03 05:57:43;;;;;;;7.30;6.30;;;16.70;99.90;;;;;;6154290;23;20472;-83
2021/10/03 06:00:11;;;;;;;6.97;6.20;;;16.80;99.90;;;;;;6145245;23;20404;-86
2021/10/03 06:02:38;;;;;;;5.80;5.17;;;16.90;99.90;;;;;;6152802;23;20398;-82
2021/10/03 06:05:06;;;;;;;7.70;5.80;;;16.90;99.90;;;;;;6144962;23;20407;-83
2021/10/03 06:07:33;;;;;;;8.20;6.40;;;17.00;99.90;;;;;;6136240;23;20416;-84
2021/10/03 06:10:00;;;;;;;6.03;5.40;;;17.00;99.90;;;;;;6141870;23;20420;-83
2021/10/03 06:12:29;;;;;;;5.80;5.20;;;17.10;99.90;;;;;;6134674;23;20440;-83
2021/10/03 06:14:57;;;;;;;6.07;5.47;;;17.10;99.90;;;;;;6133864;23;20401;-84
2021/10/03 06:17:24;;;;;;;6.00;5.47;;;17.20;99.90;;;;;;6134575;23;20447;-84
2021/10/03 06:19:51;;;;;;;7.10;5.00;;;17.20;99.90;;;;;;6133401;23;20466;-84
2021/10/03 06:22:21;;;;;;;5.90;5.30;;;17.20;99.90;;;;;;6132650;23;20408;-84
2021/10/03 06:24:48;;;;;;;6.03;5.53;;;17.30;99.80;;;;;;6144920;23;20978;-85
2021/10/03 06:27:15;;;;;;;7.30;5.93;;;17.30;99.90;;;;;;6147295;23;20424;-85
2021/10/03 06:29:43;;;;;;;7.03;5.90;;;17.30;99.90;;;;;;6137290;23;20420;-84
2021/10/03 06:32:10;;;;;;;15.57;5.57;;;17.40;99.50;;;;;;6137210;23;20407;-83
2021/10/03 06:34:37;;;;;;;6.37;5.73;;;17.60;99.90;;;;;;6133443;23;20405;-83
2021/10/03 06:37:04;;;;;;;5.90;5.40;;;17.80;99.90;;;;;;6132821;23;20450;-82
2021/10/03 06:39:31;;;;;;;10.40;5.67;;;18.00;98.80;;;;;;6132397;23;20786;-84
2021/10/03 06:41:57;;;;;;;4.33;3.93;;;18.00;97.40;;;;;;6131836;23;20463;-84
2021/10/03 06:44:24;;;;;;;5.47;4.87;;;17.90;96.80;;;;;;6143716;23;20400;-84
2021/10/03 06:46:52;;;;;;;6.20;4.27;;;18.00;97.30;;;;;;6146830;23;20431;-84
2021/10/03 06:49:19;;;;;;;5.10;4.67;;;18.20;97.00;;;;;;6146031;23;20462;-84
2021/10/03 06:51:46;;;;;;;4.83;4.43;;;18.40;96.20;;;;;;6147468;23;20423;-84
2021/10/03 06:54:12;;;;;;;4.97;4.57;;;18.50;95.80;;;;;;6143804;23;20407;-83
2021/10/03 06:56:39;;;;;;;4.47;4.10;;;18.70;95.50;;;;;;6147084;23;20452;-83
2021/10/03 06:59:06;;;;;;;5.63;5.13;;;18.80;95.20;;;;;;6143675;23;20401;-84
2021/10/03 07:01:33;;;;;;;4.77;4.37;;;18.90;95.00;;;;;;6140486;23;20717;-85
2021/10/03 07:04:01;;;;;;;5.47;4.87;;;19.10;94.70;;;;;;6136397;23;20414;-85
2021/10/03 07:06:28;;;;;;;5.13;4.63;;;19.00;94.20;;;;;;6133995;23;20910;-84
2021/10/03 07:08:54;;;;;;;6.00;4.20;;;19.20;94.50;;;;;;6131462;23;20409;-84
2021/10/03 07:11:21;;;;;;;5.47;5.00;;;19.30;93.70;;;;;;6131161;23;20967;-84
2021/10/03 07:13:49;;;;;;;5.10;4.70;;;19.40;93.70;;;;;;6132319;23;20421;-83
2021/10/03 07:16:17;;;;;;;5.13;3.87;;;19.40;93.80;;;;;;6130422;23;20507;-83
2021/10/03 07:18:43;;;;;;;3.93;3.43;;;19.50;93.50;;;;;;6143357;23;20456;-83
2021/10/03 07:21:12;;;;;;;4.53;4.13;;;19.50;93.40;;;;;;6145547;23;20414;-83
2021/10/03 07:23:39;;;;;;;5.03;4.63;;;19.40;93.00;;;;;;6143265;23;20390;-83
2021/10/03 07:26:07;;;;;;;5.73;4.63;;;19.50;93.10;;;;;;6132250;23;20424;-83
2021/10/03 07:28:34;;;;;;;4.70;4.30;;;19.50;93.30;;;;;;6132978;23;20425;-84
2021/10/03 07:31:01;;;;;;;5.03;4.53;;;19.50;92.50;;;;;;6130528;23;20722;-84
2021/10/03 07:33:28;;;;;;;13.23;3.80;;;19.40;93.00;;;;;;6132551;23;20422;-83
2021/10/03 07:35:55;;;;;;;4.67;4.27;;;19.50;92.90;;;;;;6130461;23;20485;-85
2021/10/03 07:38:23;;;;;;;5.30;4.80;;;19.60;92.90;;;;;;6130951;23;20439;-84
2021/10/03 07:40:51;;;;;;;7.50;4.60;;;19.70;92.40;;;;;;6131455;23;20418;-85
2021/10/03 07:43:17;;;;;;;4.90;4.40;;;19.80;92.30;;;;;;6130214;23;20733;-85
2021/10/03 07:45:44;;;;;;;4.97;3.90;;;20.00;92.00;;;;;;6130847;23;20430;-82
2021/10/03 07:48:11;;;;;;;4.83;4.43;;;20.10;91.90;;;;;;6131731;23;20473;-85
2021/10/03 07:50:37;;;;;;;5.13;4.27;;;20.30;91.50;;;;;;6132666;23;20843;-85
2021/10/03 07:53:04;;;;;;;4.40;3.80;;;20.30;91.20;;;;;;6134624;23;20418;-83
2021/10/03 07:55:32;;;;;;;4.80;4.13;;;20.30;91.30;;;;;;6107629;23;20412;-84
2021/10/03 07:58:03;;;;;;;6.80;4.93;;;20.40;91.20;;;;;;6132992;23;20443;-84
2021/10/03 08:00:30;;;;;;;5.40;4.43;;;20.60;90.80;;;;;;6137946;23;20396;-83
2021/10/03 08:02:57;;;;;;;4.17;3.83;;;20.70;90.60;;;;;;6143395;23;20396;-84
2021/10/03 08:05:24;;;;;;;4.23;3.83;;;20.60;89.90;;;;;;6132261;23;20407;-84
2021/10/03 08:07:51;;;;;;;4.43;4.03;;;20.60;90.50;;;;;;6135482;23;20406;-84
2021/10/03 08:10:18;;;;;;;5.03;4.43;;;20.70;90.00;;;;;;6143862;23;20414;-83
2021/10/03 08:12:47;;;;;;;4.80;4.03;;;20.70;90.20;;;;;;6152571;23;20400;-83
2021/10/03 08:15:14;;;;;;;5.60;4.10;;;20.70;90.60;;;;;;6152835;23;20473;-82
2021/10/03 08:17:41;;;;;;;4.87;4.37;;;20.70;90.50;;;;;;6152228;23;20445;-84
2021/10/03 08:20:08;;;;;;;4.80;4.40;;;20.80;90.70;;;;;;6144761;23;20407;-84
2021/10/03 08:22:35;;;;;;;5.40;4.90;;;20.80;90.40;;;;;;6136159;23;20408;-84
2021/10/03 08:25:05;;;;;;;5.30;4.80;;;20.80;90.60;;;;;;6144770;23;20407;-84
2021/10/03 08:27:32;;;;;;;5.20;4.77;;;21.00;90.70;;;;;;6149752;23;20449;-84
2021/10/03 08:30:01;;;;;;;5.13;4.73;;;21.20;90.30;;;;;;6140450;23;20404;-85
2021/10/03 08:32:28;;;;;;;14.10;4.83;;;21.40;90.00;;;;;;6143202;23;20395;-85
2021/10/03 08:34:55;;;;;;;4.97;4.57;;;21.50;89.60;;;;;;6146933;23;20404;-85
2021/10/03 08:37:22;;;;;;;5.60;5.00;;;21.50;89.10;;;;;;6142017;23;20475;-84
2021/10/03 08:39:49;;;;;;;7.27;5.10;;;21.30;89.80;;;;;;6137127;23;20419;-83
2021/10/03 08:42:16;;;;;;;6.60;5.83;;;21.30;90.60;;;;;;6136669;23;20407;-84
2021/10/03 08:44:43;;;;;;;5.33;4.83;;;21.30;90.20;;;;;;6133869;23;20403;-85
2021/10/03 08:47:11;;;;;;;5.57;5.03;;;21.30;89.60;;;;;;6140629;23;20423;-84
2021/10/03 08:49:39;;;;;;;5.00;4.50;;;21.10;90.00;;;;;;6139581;23;20437;-84
2021/10/03 08:52:06;;;;;;;5.73;5.10;;;21.30;89.70;;;;;;6138919;23;20408;-84
2021/10/03 08:54:35;;;;;;;5.20;4.43;;;21.30;90.20;;;;;;6147283;23;20471;-83
2021/10/03 08:57:02;;;;;;;3.90;3.60;;;21.50;89.10;;;;;;6146150;23;20438;-88
2021/10/03 08:59:32;;;;;;;6.17;3.60;;;21.70;88.90;;;;;;6153778;23;20455;-89
2021/10/03 09:02:02;;;;;;;5.40;4.90;;;21.90;88.50;;;;;;6141755;23;20412;-88
2021/10/03 09:04:35;;;;;;;3.70;3.40;;;21.70;87.80;;;;;;6135116;23;20755;-88
2021/10/03 09:07:13;;;;;;;4.53;4.13;;;21.90;87.30;;;;;;6133582;23;20425;-88
2021/10/03 09:09:55;;;;;;;4.70;4.13;;;21.80;87.00;;;;;;6132564;23;20440;-88
2021/10/03 09:12:34;;;;;;;5.37;4.90;;;21.60;88.20;;;;;;6135294;23;20749;-89
2021/10/03 09:15:17;;;;;;;5.10;3.97;;;21.30;89.50;;;;;;6134355;23;20408;-89
2021/10/03 09:17:50;;;;;;;3.33;3.03;;;21.30;88.60;;;;;;6130061;23;20447;-89
2021/10/03 09:20:20;;;;;;;5.10;4.00;;;21.30;87.90;;;;;;6134402;23;20377;-82
2021/10/03 09:23:07;;;;;;;5.20;4.17;;;21.30;88.00;;;;;;6139446;23;20377;-82
2021/10/03 09:25:40;;;;;;;4.40;4.00;;;21.40;88.40;;;;;;6138587;23;20382;-82
2021/10/03 09:28:10;;;;;;;5.43;4.87;;;21.40;88.90;;;;;;6138239;23;20513;-81
2021/10/03 09:30:51;;;;;;;6.00;4.40;;;21.40;89.30;;;;;;6139887;23;20403;-82
2021/10/03 09:33:18;;;;;;;5.73;4.50;;;21.50;89.20;;;;;;6139800;23;20424;-81
2021/10/03 09:35:55;;;;;;;5.27;4.43;;;21.50;89.30;;;;;;6139820;23;20481;-82
2021/10/03 09:38:22;;;;;;;5.90;4.00;;;21.60;88.90;;;;;;6139751;23;20433;-81
2021/10/03 09:41:00;;;;;;;6.47;4.50;;;21.70;88.70;;;;;;6145886;23;20417;-81
2021/10/03 09:43:43;;;;;;;5.77;4.80;;;21.70;88.40;;;;;;6144659;23;20406;-81
2021/10/03 09:46:28;;;;;;;6.00;4.13;;;21.80;88.10;;;;;;6141271;23;20429;-89
2021/10/03 09:53:14;;;;;;;4.63;4.00;;;22.10;88.00;;;;;;6134252;23;20345;-89
2021/10/03 09:59:16;;;;;;;4.87;4.13;;;22.20;86.80;;;;;;6080250;23;20413;-87
2021/10/03 10:01:44;;;;;;;6.97;4.37;;;22.10;86.90;;;;;;6112890;23;20464;-90
2021/10/03 10:04:13;;;;;;;5.53;4.60;;;22.10;87.80;;;;;;6119814;23;20409;-89
2021/10/03 10:06:39;;;;;;;6.63;5.00;;;22.00;88.10;;;;;;6117051;23;20799;-90
2021/10/03 10:09:08;;;;;;;7.33;4.90;;;22.00;88.50;;;;;;6115884;23;20413;-90
2021/10/03 10:11:41;;;;;;;3.93;3.63;;;21.90;87.10;;;;;;6105656;23;20441;-93
2021/10/03 10:14:09;;;;;;;3.40;3.03;;;21.90;88.50;;;;;;6103236;23;20990;-90
2021/10/03 10:16:42;;;;;;;6.17;3.27;;;21.80;89.60;;;;;;6101665;23;20522;-93
2021/10/03 10:19:28;;;;;;;3.77;3.47;;;21.90;89.40;;;;;;6100637;23;20451;-90
2021/10/03 10:22:41;;;;;;;6.97;3.83;;;21.90;88.60;;;;;;6102687;23;20466;-90
2021/10/03 10:25:20;;;;;;;4.00;3.70;;;22.20;87.00;;;;;;6103648;23;20882;-94
2021/10/03 10:28:07;;;;;;;4.97;4.50;;;22.60;86.20;;;;;;6105629;23;20451;-93
2021/10/03 10:30:37;;;;;;;5.10;4.50;;;22.80;85.50;;;;;;6104374;23;20408;-94
2021/10/03 10:33:15;;;;;;;4.60;4.03;;;23.10;85.80;;;;;;6103695;23;20416;-91
2021/10/03 10:35:45;;;;;;;4.87;4.47;;;23.20;85.00;;;;;;6106379;23;20447;-91
2021/10/03 10:38:19;;;;;;;5.37;4.87;;;23.30;85.00;;;;;;6106563;23;20451;-93
2021/10/03 10:41:03;;;;;;;7.40;6.70;;;23.40;85.40;;;;;;6106603;23;20422;-94
2021/10/03 10:47:02;;;;;;;4.77;4.33;;;23.40;84.00;;;;;;6108229;23;20514;-92
2021/10/03 10:49:38;;;;;;;5.53;4.97;;;23.50;84.20;;;;;;6100433;23;20499;-92
2021/10/03 10:52:25;;;;;;;7.10;6.40;;;23.50;84.10;;;;;;6104426;23;20416;-92
2021/10/03 10:55:51;;;;;;;7.50;6.00;;;23.60;84.00;;;;;;6104232;23;20419;-91
2021/10/03 10:58:19;;;;;;;5.23;4.37;;;23.80;84.30;;;;;;6123015;23;20443;-89
2021/10/03 11:01:05;;;;;;;4.83;4.03;;;23.70;82.90;;;;;;6132452;23;20410;-91
2021/10/03 11:04:04;;;;;;;5.30;4.53;;;23.50;81.20;;;;;;6138590;23;20467;-92
2021/10/03 11:07:02;;;;;;;4.60;4.20;;;23.40;83.40;;;;;;6133541;23;20423;-90
2021/10/03 11:09:41;;;;;;;4.30;3.90;;;23.30;82.90;;;;;;6130423;23;20390;-88
2021/10/03 11:12:11;;;;;;;4.73;4.37;;;23.40;82.40;;;;;;6135667;23;20435;-86
2021/10/03 11:14:41;;;;;;;5.90;4.23;;;23.50;82.50;;;;;;6152205;23;20490;-82
2021/10/03 11:17:14;;;;;;;4.40;3.70;;;23.40;84.80;;;;;;6151875;23;20491;-80
2021/10/03 11:19:49;;;;;;;6.30;3.87;;;23.10;85.90;;;;;;6149475;23;20382;-81
2021/10/03 11:22:21;;;;;;;5.00;4.60;;;23.10;85.40;;;;;;6152382;23;20407;-82
2021/10/03 11:24:50;;;;;;;9.60;8.60;;;23.00;85.70;;;;;;6149008;23;20383;-83
2021/10/03 11:27:19;;;;;;;5.30;4.80;;;23.10;86.20;;;;;;6138432;23;20442;-82
2021/10/03 11:29:47;;;;;;;8.20;6.47;;;22.90;86.70;;;;;;6144512;23;20417;-82
2021/10/03 11:32:17;;;;;;;7.97;6.13;;;22.70;87.20;;;;;;6151414;23;20391;-83
2021/10/03 11:34:46;;;;;;;4.70;4.37;;;22.70;87.70;;;;;;6151139;23;20410;-82
2021/10/03 11:37:15;;;;;;;5.43;4.60;;;22.70;86.80;;;;;;6145065;23;20426;-82
2021/10/03 11:39:45;;;;;;;6.00;5.40;;;22.80;87.00;;;;;;6139628;23;20471;-83
2021/10/03 11:42:15;;;;;;;5.53;5.00;;;22.90;86.90;;;;;;6139086;23;20482;-83
2021/10/03 11:44:43;;;;;;;5.93;5.43;;;23.00;86.40;;;;;;6143135;23;20417;-81
2021/10/03 11:47:11;;;;;;;4.37;3.97;;;23.10;87.00;;;;;;6143242;23;20437;-82
2021/10/03 11:49:42;;;;;;;4.50;4.10;;;23.10;87.20;;;;;;6138284;23;20407;-81
2021/10/03 11:52:13;;;;;;;4.90;4.40;;;23.10;86.10;;;;;;6143614;23;20406;-81
2021/10/03 11:54:45;;;;;;;5.27;4.33;;;23.00;86.30;;;;;;6143897;23;20396;-83
2021/10/03 11:57:20;;;;;;;5.03;4.40;;;23.00;86.50;;;;;;6137851;23;20450;-81
2021/10/03 11:59:47;;;;;;;6.00;5.40;;;23.00;87.10;;;;;;6138292;23;20402;-82
2021/10/03 12:02:44;;;;;;;5.60;4.80;;;23.00;87.00;;;;;;6133428;23;20419;-91
2021/10/03 12:05:16;;;;;;;8.80;7.77;;;22.90;87.70;;;;;;6126403;23;20466;-89
2021/10/03 12:07:46;;;;;;;7.53;6.77;;;22.60;90.00;;;;;;6128247;23;20419;-89
2021/10/03 12:10:17;;;;;;;14.50;11.20;;;22.60;90.20;;;;;;6129096;23;20413;-90
2021/10/03 12:12:55;;;;;;;5.90;5.30;;;22.70;90.00;;;;;;6128882;23;20466;-90
2021/10/03 12:15:58;;;;;;;7.17;6.50;;;22.90;90.20;;;;;;6128756;23;20415;-89
2021/10/03 12:18:44;;;;;;;5.70;5.20;;;23.20;88.70;;;;;;6126423;23;20542;-89
2021/10/03 12:21:18;;;;;;;5.23;4.80;;;23.60;87.80;;;;;;6128620;23;20537;-90
2021/10/03 12:23:47;;;;;;;9.47;4.80;;;23.60;86.60;;;;;;6136013;23;20376;-90
2021/10/03 12:26:22;;;;;;;5.93;5.33;;;23.60;85.70;;;;;;6127870;23;20434;-90
2021/10/03 12:29:20;;;;;;;6.83;6.07;;;23.60;87.20;;;;;;6148078;23;20378;-88
2021/10/03 12:31:51;;;;;;;7.80;4.77;;;23.50;87.50;;;;;;6138187;23;20442;-90
2021/10/03 12:34:39;;;;;;;5.90;5.30;;;23.50;87.10;;;;;;6128797;23;20399;-89
2021/10/03 12:37:09;;;;;;;6.67;6.07;;;23.50;86.40;;;;;;6139891;23;20507;-88
2021/10/03 12:39:38;;;;;;;5.80;5.30;;;23.60;86.70;;;;;;6144270;23;20471;-89
2021/10/03 12:42:08;;;;;;;7.10;6.40;;;23.70;86.30;;;;;;6135211;23;20735;-89
2021/10/03 12:44:39;;;;;;;7.73;6.93;;;23.90;86.40;;;;;;6135115;23;20483;-90
2021/10/03 12:47:10;;;;;;;7.70;6.97;;;24.00;86.30;;;;;;6142364;23;20507;-90
2021/10/03 12:49:38;;;;;;;5.33;4.90;;;24.10;85.30;;;;;;6133344;23;20411;-89
2021/10/03 12:52:08;;;;;;;7.27;5.83;;;24.20;84.40;;;;;;6129437;23;20419;-89
2021/10/03 12:54:35;;;;;;;6.20;5.60;;;24.30;82.90;;;;;;6128029;23;20404;-90
2021/10/03 12:57:03;;;;;;;7.43;5.10;;;24.50;82.50;;;;;;6127351;23;20434;-90
2021/10/03 12:59:34;;;;;;;7.07;6.37;;;24.80;81.00;;;;;;6127220;23;20494;-90
2021/10/03 13:02:04;;;;;;;8.20;5.60;;;24.80;80.40;;;;;;6126686;23;20859;-89
2021/10/03 13:04:31;;;;;;;6.40;5.77;;;24.70;81.80;;;;;;6127114;23;20439;-89
2021/10/03 13:06:57;;;;;;;9.57;6.07;;;24.60;80.70;;;;;;6126850;23;20438;-90
2021/10/03 13:09:27;;;;;;;7.10;5.80;;;24.50;80.80;;;;;;6126767;23;20406;-90
2021/10/03 13:11:54;;;;;;;17.33;15.57;;;24.40;82.40;;;;;;6127495;23;20451;-90